createdAt,value
2023-05-10T00:00:56.663Z,19.08
2023-05-10T00:03:23.180Z,19.25
2023-05-10T00:05:49.687Z,22.83
2023-05-10T00:08:16.035Z,23.35
2023-05-10T00:10:42.343Z,23.13
2023-05-10T00:13:08.711Z,22.98
2023-05-10T00:15:35.635Z,24.50
2023-05-10T00:18:02.189Z,25.33
2023-05-10T00:20:28.645Z,26.52
2023-05-10T00:22:55.002Z,27.92
2023-05-10T00:25:22.503Z,26.40
2023-05-10T00:27:49.247Z,29.35
2023-05-10T00:30:16.046Z,28.08
2023-05-10T00:32:42.829Z,30.80
2023-05-10T00:35:09.369Z,31.73
2023-05-10T00:37:35.673Z,33.72
2023-05-10T00:40:02.149Z,30.77
2023-05-10T00:42:28.455Z,33.53
2023-05-10T00:44:54.791Z,38.30
2023-05-10T00:47:21.372Z,38.50
2023-05-10T00:49:47.732Z,38.15
2023-05-10T00:52:14.365Z,42.65
2023-05-10T00:54:40.847Z,43.28
2023-05-10T00:57:07.245Z,43.38
2023-05-10T00:59:33.830Z,39.25
2023-05-10T01:02:00.372Z,42.72
2023-05-10T01:04:26.998Z,40.17
2023-05-10T01:06:54.520Z,37.88
2023-05-10T01:09:25.989Z,45.42
2023-05-10T01:11:52.493Z,33.95
2023-05-10T01:14:20.667Z,42.03
2023-05-10T01:16:49.655Z,40.03
2023-05-10T01:19:23.175Z,40.40
2023-05-10T01:22:02.879Z,40.97
2023-05-10T01:24:57.149Z,34.50
2023-05-10T01:27:35.084Z,40.65
2023-05-10T01:30:22.438Z,39.55
2023-05-10T01:33:01.124Z,40.80
2023-05-10T01:35:44.269Z,53.67
2023-05-10T01:38:13.571Z,43.97
2023-05-10T01:40:54.084Z,42.95
2023-05-10T01:43:29.006Z,45.70
2023-05-10T01:46:11.919Z,46.33
2023-05-10T01:48:47.798Z,50.50
2023-05-10T01:51:17.077Z,49.80
2023-05-10T01:53:45.750Z,49.08
2023-05-10T01:56:13.916Z,51.72
2023-05-10T01:58:44.783Z,49.30
2023-05-10T02:01:11.702Z,41.25
2023-05-10T02:03:39.520Z,42.75
2023-05-10T02:06:07.675Z,45.08
2023-05-10T02:08:37.485Z,41.92
2023-05-10T02:11:04.975Z,40.95
2023-05-10T02:13:33.925Z,44.40
2023-05-10T02:16:02.512Z,41.88
2023-05-10T02:18:29.076Z,41.63
2023-05-10T02:20:56.282Z,39.55
2023-05-10T02:23:24.093Z,39.85
2023-05-10T02:25:52.588Z,47.88
2023-05-10T02:28:19.604Z,47.95
2023-05-10T02:30:47.959Z,42.30
2023-05-10T02:33:15.263Z,42.55
2023-05-10T02:35:42.351Z,36.72
2023-05-10T02:38:10.154Z,42.53
2023-05-10T02:40:38.464Z,43.72
2023-05-10T02:43:06.458Z,44.97
2023-05-10T02:45:33.633Z,41.10
2023-05-10T02:48:00.789Z,35.97
2023-05-10T02:50:30.953Z,47.45
2023-05-10T02:53:02.897Z,39.53
2023-05-10T02:55:36.221Z,46.17
2023-05-10T02:58:03.244Z,47.50
2023-05-10T03:00:30.214Z,49.13
2023-05-10T03:02:56.827Z,41.83
2023-05-10T03:05:24.221Z,50.75
2023-05-10T03:07:51.698Z,48.40
2023-05-10T03:10:19.540Z,48.13
2023-05-10T03:13:22.078Z,49.35
2023-05-10T03:15:54.583Z,43.50
2023-05-10T03:18:34.792Z,43.58
2023-05-10T03:21:06.999Z,47.60
2023-05-10T03:23:43.046Z,43.20
2023-05-10T03:26:09.796Z,47.40
2023-05-10T03:28:37.139Z,49.08
2023-05-10T03:31:06.472Z,37.28
2023-05-10T03:33:33.340Z,47.90
2023-05-10T03:35:59.712Z,53.10
2023-05-10T03:38:26.833Z,49.53
2023-05-10T03:40:53.591Z,49.50
2023-05-10T03:43:19.892Z,49.70
2023-05-10T03:45:46.212Z,47.35
2023-05-10T03:48:14.519Z,50.92
2023-05-10T03:50:40.899Z,43.88
2023-05-10T03:53:07.229Z,45.15
2023-05-10T03:55:35.430Z,46.60
2023-05-10T03:58:01.847Z,41.78
2023-05-10T04:00:28.134Z,51.75
2023-05-10T04:02:54.520Z,56.50
2023-05-10T04:05:20.905Z,49.80
2023-05-10T04:07:47.976Z,52.50
2023-05-10T04:10:14.572Z,52.30
2023-05-10T04:12:41.065Z,56.63
2023-05-10T04:15:08.006Z,46.03
2023-05-10T04:17:34.481Z,52.03
2023-05-10T04:20:00.867Z,55.28
2023-05-10T04:22:28.750Z,52.45
2023-05-10T04:24:55.146Z,52.80
2023-05-10T04:27:21.450Z,45.72
2023-05-10T04:29:47.735Z,46.38
2023-05-10T04:32:14.125Z,51.05
2023-05-10T04:34:40.427Z,55.20
2023-05-10T04:37:07.243Z,47.92
2023-05-10T04:39:33.916Z,54.92
2023-05-10T04:42:00.285Z,52.03
2023-05-10T04:44:26.576Z,57.22
2023-05-10T04:46:52.878Z,51.83
2023-05-10T04:49:19.206Z,54.72
2023-05-10T04:51:45.584Z,52.25
2023-05-10T04:54:11.922Z,60.40
2023-05-10T04:56:38.237Z,46.83
2023-05-10T04:59:04.573Z,60.70
2023-05-10T05:01:31.072Z,51.65
2023-05-10T05:03:57.695Z,49.25
2023-05-10T05:06:25.674Z,53.22
2023-05-10T05:08:52.422Z,49.55
2023-05-10T05:11:18.840Z,52.03
2023-05-10T05:13:45.264Z,50.53
2023-05-10T05:16:14.439Z,56.40
2023-05-10T05:18:40.759Z,51.13
2023-05-10T05:21:20.864Z,52.35
2023-05-10T05:23:48.267Z,56.03
2023-05-10T05:26:15.704Z,58.45
2023-05-10T05:28:42.038Z,56.53
2023-05-10T05:31:08.742Z,56.15
2023-05-10T05:33:35.584Z,49.63
2023-05-10T05:36:03.237Z,48.30
2023-05-10T05:38:29.803Z,56.33
2023-05-10T05:40:56.310Z,63.03
2023-05-10T05:43:22.675Z,54.95
2023-05-10T05:45:49.102Z,60.40
2023-05-10T05:48:15.434Z,54.15
2023-05-10T05:50:41.767Z,50.47
2023-05-10T05:53:08.936Z,51.95
2023-05-10T05:55:35.226Z,54.80
2023-05-10T05:58:01.575Z,47.08
2023-05-10T06:00:28.006Z,48.45
2023-05-10T06:02:54.524Z,54.83
2023-05-10T06:05:21.806Z,50.42
2023-05-10T06:07:48.625Z,52.20
2023-05-10T06:10:14.929Z,53.63
2023-05-10T06:12:41.313Z,56.08
2023-05-10T06:15:08.254Z,46.17
2023-05-10T06:17:34.575Z,46.95
2023-05-10T06:20:00.930Z,47.38
2023-05-10T06:22:27.246Z,41.60
2023-05-10T06:24:53.571Z,48.67
2023-05-10T06:27:19.873Z,45.83
2023-05-10T06:29:46.176Z,42.47
2023-05-10T06:32:12.573Z,49.22
2023-05-10T06:34:38.873Z,50.70
2023-05-10T06:37:05.536Z,44.60
2023-05-10T06:39:31.855Z,33.17
2023-05-10T06:41:58.190Z,34.88
2023-05-10T06:44:24.491Z,52.17
2023-05-10T06:46:51.004Z,40.38
2023-05-10T06:49:17.511Z,35.97
2023-05-10T06:51:43.815Z,40.25
2023-05-10T06:54:10.222Z,33.65
2023-05-10T06:56:36.565Z,37.38
2023-05-10T06:59:03.791Z,39.13
2023-05-10T07:01:30.163Z,34.45
2023-05-10T07:03:56.504Z,35.92
2023-05-10T07:06:32.964Z,38.45
2023-05-10T07:09:00.375Z,33.65
2023-05-10T07:11:27.585Z,39.83
2023-05-10T07:13:53.895Z,38.55
2023-05-10T07:16:20.522Z,34.67
2023-05-10T07:18:46.955Z,30.90
2023-05-10T07:21:13.436Z,34.17
2023-05-10T07:23:39.738Z,35.38
2023-05-10T07:26:06.074Z,37.85
2023-05-10T07:28:32.399Z,31.67
2023-05-10T07:30:58.725Z,31.70
2023-05-10T07:33:25.250Z,31.70
2023-05-10T07:35:51.574Z,34.58
2023-05-10T07:38:18.482Z,34.60
2023-05-10T07:40:44.875Z,37.00
2023-05-10T07:43:11.252Z,46.15
2023-05-10T07:45:37.659Z,38.33
2023-05-10T07:48:04.139Z,34.40
2023-05-10T07:50:30.495Z,30.08
2023-05-10T07:52:57.355Z,37.35
2023-05-10T07:55:23.703Z,44.15
2023-05-10T07:57:50.038Z,39.53
2023-05-10T08:00:21.078Z,37.95
2023-05-10T08:02:48.486Z,42.28
2023-05-10T08:05:15.819Z,41.60
2023-05-10T08:07:43.215Z,36.03
2023-05-10T08:10:11.875Z,38.97
2023-05-10T08:12:39.111Z,55.53
2023-05-10T08:15:06.096Z,34.90
2023-05-10T08:17:32.559Z,42.53
2023-05-10T08:19:58.894Z,32.63
2023-05-10T08:22:25.265Z,39.65
2023-05-10T08:24:51.563Z,47.15
2023-05-10T08:27:17.864Z,41.03
2023-05-10T08:29:50.198Z,36.78
2023-05-10T08:32:17.218Z,39.90
2023-05-10T08:34:43.629Z,36.45
2023-05-10T08:37:11.329Z,43.65
2023-05-10T08:39:38.385Z,41.58
2023-05-10T08:42:06.165Z,33.78
2023-05-10T08:44:37.471Z,36.50
2023-05-10T08:47:07.506Z,37.65
2023-05-10T08:49:34.500Z,36.40
2023-05-10T08:52:04.513Z,34.67
2023-05-10T08:54:32.899Z,30.20
2023-05-10T08:56:59.354Z,30.05
2023-05-10T08:59:25.830Z,30.80
2023-05-10T09:01:54.933Z,28.83
2023-05-10T09:04:22.081Z,26.45
2023-05-10T09:06:48.874Z,30.88
2023-05-10T09:09:16.974Z,29.75
2023-05-10T09:11:44.206Z,23.88
2023-05-10T09:14:11.134Z,26.77
2023-05-10T09:16:37.582Z,29.58
2023-05-10T09:19:04.138Z,29.90
2023-05-10T09:21:31.977Z,27.63
2023-05-10T09:24:03.402Z,29.75
2023-05-10T09:26:29.696Z,27.98
2023-05-10T09:28:58.582Z,31.45
2023-05-10T09:31:28.345Z,35.65
2023-05-10T09:33:54.865Z,30.88
2023-05-10T09:36:21.213Z,32.38
2023-05-10T09:38:53.456Z,23.35
2023-05-10T09:41:22.501Z,26.88
2023-05-10T09:43:49.243Z,26.83
2023-05-10T09:46:16.908Z,26.10
2023-05-10T09:48:46.035Z,24.70
2023-05-10T09:51:23.669Z,25.83
2023-05-10T09:54:10.391Z,26.23
2023-05-10T09:56:38.489Z,17.63
2023-05-10T09:59:05.602Z,24.70
2023-05-10T10:01:32.128Z,23.77
2023-05-10T10:03:59.175Z,24.60
2023-05-10T10:06:30.172Z,23.58
2023-05-10T10:08:57.445Z,27.08
2023-05-10T10:11:24.624Z,19.80
2023-05-10T10:13:51.027Z,19.98
2023-05-10T10:16:17.392Z,18.23
2023-05-10T10:18:44.206Z,16.15
2023-05-10T10:21:10.875Z,12.82
2023-05-10T10:23:37.357Z,18.88
2023-05-10T10:26:05.341Z,13.18
2023-05-10T10:28:57.760Z,14.60
2023-05-10T10:31:37.371Z,14.68
2023-05-10T10:34:08.891Z,16.15
2023-05-10T10:36:44.901Z,13.23
2023-05-10T10:39:11.727Z,15.43
2023-05-10T10:41:50.669Z,16.00
2023-05-10T10:44:23.270Z,13.50
2023-05-10T10:47:30.781Z,15.70
2023-05-10T10:50:06.070Z,15.40
2023-05-10T10:52:39.881Z,15.15
2023-05-10T10:55:09.019Z,11.93
2023-05-10T10:57:41.050Z,14.32
2023-05-10T11:00:27.919Z,14.52
2023-05-10T11:03:15.258Z,10.93
2023-05-10T11:05:41.968Z,10.82
2023-05-10T11:08:11.657Z,10.23
2023-05-10T11:10:38.366Z,13.07
2023-05-10T11:13:06.973Z,13.32
2023-05-10T11:15:40.663Z,10.57
2023-05-10T11:18:20.220Z,8.93
2023-05-10T11:21:10.122Z,8.35
2023-05-10T11:24:06.628Z,8.88
2023-05-10T11:26:35.391Z,8.27
2023-05-10T11:29:02.784Z,9.48
2023-05-10T11:31:29.724Z,8.38
2023-05-10T11:33:59.441Z,8.90
2023-05-10T11:36:28.708Z,9.68
2023-05-10T11:38:56.594Z,8.02
2023-05-10T11:41:24.607Z,5.68
2023-05-10T11:43:52.599Z,9.60
2023-05-10T11:46:24.280Z,8.93
2023-05-10T11:48:53.497Z,8.48
2023-05-10T11:51:24.913Z,8.85
2023-05-10T11:53:54.373Z,9.00
2023-05-10T11:56:22.644Z,9.13
2023-05-10T11:58:56.766Z,10.77
2023-05-10T12:01:24.952Z,7.55
2023-05-10T12:03:53.459Z,9.55
2023-05-10T12:06:21.362Z,9.35
2023-05-10T12:08:50.815Z,10.88
2023-05-10T12:11:18.135Z,8.68
2023-05-10T12:13:48.391Z,8.60
2023-05-10T12:16:19.564Z,7.70
2023-05-10T12:18:49.274Z,10.68
2023-05-10T12:21:16.063Z,10.23
2023-05-10T12:23:42.596Z,9.88
2023-05-10T12:26:12.257Z,10.13
2023-05-10T12:28:40.351Z,7.13
2023-05-10T12:31:07.515Z,10.00
2023-05-10T12:33:43.326Z,7.40
2023-05-10T12:36:15.705Z,9.55
2023-05-10T12:38:49.068Z,7.78
2023-05-10T12:41:17.481Z,7.82
2023-05-10T12:43:43.883Z,8.13
2023-05-10T12:46:15.232Z,9.85
2023-05-10T12:48:43.310Z,9.23
2023-05-10T12:51:12.535Z,9.43
2023-05-10T12:53:45.037Z,7.85
2023-05-10T12:56:12.578Z,8.07
2023-05-10T12:58:39.288Z,7.57
2023-05-10T13:01:06.575Z,10.73
2023-05-10T13:03:33.436Z,6.18
2023-05-10T13:05:59.868Z,7.63
2023-05-10T13:08:26.355Z,6.93
2023-05-10T13:10:52.866Z,8.50
2023-05-10T13:13:19.224Z,7.65
2023-05-10T13:15:45.600Z,7.38
2023-05-10T13:18:12.087Z,8.18
2023-05-10T13:20:38.877Z,6.85
2023-05-10T13:23:05.328Z,8.88
2023-05-10T13:25:31.793Z,6.78
2023-05-10T13:27:59.059Z,7.97
2023-05-10T13:30:25.673Z,6.47
2023-05-10T13:32:52.177Z,6.28
2023-05-10T13:35:18.721Z,7.10
2023-05-10T13:37:45.212Z,7.70
2023-05-10T13:40:12.029Z,5.80
2023-05-10T13:42:38.966Z,7.68
2023-05-10T13:45:06.047Z,8.18
2023-05-10T13:47:32.528Z,10.50
2023-05-10T13:49:59.311Z,20.42
2023-05-10T13:52:26.114Z,6.78
2023-05-10T13:54:55.834Z,7.55
2023-05-10T13:57:22.994Z,9.95
2023-05-10T13:59:49.550Z,8.02
2023-05-10T14:02:16.183Z,8.98
2023-05-10T14:04:42.918Z,9.48
2023-05-10T14:07:09.471Z,9.55
2023-05-10T14:09:35.848Z,11.20
2023-05-10T14:12:03.033Z,8.98
2023-05-10T14:14:30.236Z,9.20
2023-05-10T14:16:56.810Z,10.80
2023-05-10T14:19:23.184Z,8.75
2023-05-10T14:21:49.534Z,10.00
2023-05-10T14:24:15.879Z,9.43
2023-05-10T14:26:42.208Z,8.80
2023-05-10T14:29:10.023Z,10.10
2023-05-10T14:31:38.653Z,9.65
2023-05-10T14:34:05.088Z,6.57
2023-05-10T14:36:31.394Z,9.23
2023-05-10T14:38:57.799Z,8.27
2023-05-10T14:41:24.167Z,7.40
2023-05-10T14:43:50.548Z,8.20
2023-05-10T14:46:17.151Z,8.57
2023-05-10T14:48:43.507Z,10.02
2023-05-10T14:51:09.913Z,9.93
2023-05-10T14:53:36.457Z,9.85
2023-05-10T14:56:06.086Z,10.88
2023-05-10T14:58:34.098Z,10.52
2023-05-10T15:01:00.816Z,12.52
2023-05-10T15:03:27.767Z,8.85
2023-05-10T15:05:54.772Z,13.45
2023-05-10T15:08:21.576Z,11.60
2023-05-10T15:10:48.571Z,10.25
2023-05-10T15:13:15.126Z,11.65
2023-05-10T15:15:41.570Z,11.93
2023-05-10T15:18:07.980Z,10.75
2023-05-10T15:20:34.361Z,11.45
2023-05-10T15:23:00.718Z,13.20
2023-05-10T15:25:27.269Z,9.60
2023-05-10T15:27:53.586Z,10.35
2023-05-10T15:30:20.144Z,10.45
2023-05-10T15:32:46.581Z,11.18
2023-05-10T15:35:13.601Z,10.25
2023-05-10T15:37:40.104Z,9.43
2023-05-10T15:40:07.123Z,11.05
2023-05-10T15:42:33.822Z,13.88
2023-05-10T15:45:00.173Z,9.00
2023-05-10T15:47:26.992Z,10.75
2023-05-10T15:49:53.418Z,10.00
2023-05-10T15:52:21.005Z,13.77
2023-05-10T15:54:47.415Z,12.70
2023-05-10T15:57:14.039Z,11.77
2023-05-10T15:59:40.437Z,10.07
2023-05-10T16:02:08.590Z,11.55
2023-05-10T16:04:35.008Z,10.23
2023-05-10T16:07:01.361Z,10.95
2023-05-10T16:09:27.778Z,8.80
2023-05-10T16:11:54.404Z,9.80
2023-05-10T16:14:24.533Z,5.30
2023-05-10T16:16:51.365Z,7.50
2023-05-10T16:19:18.212Z,6.35
2023-05-10T16:21:44.844Z,6.05
2023-05-10T16:24:11.364Z,4.53
2023-05-10T16:26:40.722Z,5.53
2023-05-10T16:29:08.256Z,3.10
2023-05-10T16:31:35.009Z,5.38
2023-05-10T16:34:04.500Z,4.95
2023-05-10T16:36:31.433Z,4.15
2023-05-10T16:39:01.204Z,3.70
2023-05-10T16:41:30.476Z,2.58
2023-05-10T16:43:57.724Z,3.15
2023-05-10T16:46:24.506Z,2.25
2023-05-10T16:54:42.214Z,3.70
2023-05-10T16:57:08.564Z,3.97
2023-05-10T16:59:34.898Z,3.35
2023-05-10T17:02:01.205Z,4.25
2023-05-10T17:04:27.548Z,3.78
2023-05-10T17:06:54.085Z,6.63
2023-05-10T17:09:20.562Z,3.13
2023-05-10T17:11:47.008Z,4.72
2023-05-10T17:14:17.367Z,2.95
2023-05-10T17:16:43.966Z,3.25
2023-05-10T17:19:10.584Z,4.38
2023-05-10T17:21:36.973Z,3.05
2023-05-10T17:24:03.403Z,3.17
2023-05-10T17:26:30.059Z,4.10
2023-05-10T17:28:56.455Z,3.97
2023-05-10T17:31:22.987Z,3.97
2023-05-10T17:33:49.409Z,4.47
2023-05-10T17:36:15.775Z,3.83
2023-05-10T17:38:43.236Z,3.50
2023-05-10T17:41:09.639Z,4.60
2023-05-10T17:43:36.043Z,3.47
2023-05-10T17:46:02.450Z,5.68
2023-05-10T17:48:28.813Z,4.45
2023-05-10T17:50:56.265Z,3.08
2023-05-10T17:53:22.655Z,3.72
2023-05-10T17:55:51.445Z,4.22
2023-05-10T17:58:17.838Z,3.60
2023-05-10T18:00:44.200Z,5.47
2023-05-10T18:03:11.571Z,4.72
2023-05-10T18:05:39.205Z,2.47
2023-05-10T18:08:05.983Z,2.00
2023-05-10T18:10:32.320Z,2.85
2023-05-10T18:12:58.677Z,2.78
2023-05-10T18:15:26.333Z,2.97
2023-05-10T18:17:52.872Z,2.17
2023-05-10T18:20:23.592Z,2.55
2023-05-10T18:22:50.728Z,3.65
2023-05-10T18:25:17.787Z,2.60
2023-05-10T18:27:44.305Z,3.60
2023-05-10T18:30:12.229Z,2.47
2023-05-10T18:32:39.483Z,2.78
2023-05-10T18:35:09.201Z,3.08
2023-05-10T18:37:36.479Z,4.72
2023-05-10T18:40:04.816Z,1.92
2023-05-10T18:42:31.340Z,3.67
2023-05-10T18:44:57.761Z,2.53
2023-05-10T18:47:26.330Z,3.08
2023-05-10T18:49:52.704Z,3.42
2023-05-10T18:52:19.097Z,3.85
2023-05-10T18:54:45.435Z,3.58
2023-05-10T18:57:12.575Z,3.67
2023-05-10T18:59:39.034Z,2.10
2023-05-10T19:02:07.959Z,3.65
2023-05-10T19:04:34.665Z,5.68
2023-05-10T19:07:01.975Z,3.78
2023-05-10T19:09:28.770Z,5.25
2023-05-10T19:11:55.242Z,2.90
2023-05-10T19:14:21.630Z,5.63
2023-05-10T19:16:48.270Z,4.07
2023-05-10T19:19:15.259Z,6.00
2023-05-10T19:21:41.714Z,3.90
2023-05-10T19:24:08.151Z,5.57
2023-05-10T19:26:35.197Z,3.92
2023-05-10T19:29:04.020Z,4.68
2023-05-10T19:31:30.862Z,5.22
2023-05-10T19:34:00.508Z,6.32
2023-05-10T19:36:27.274Z,7.70
2023-05-10T19:38:53.843Z,6.57
2023-05-10T19:41:20.210Z,4.47
2023-05-10T19:43:46.610Z,5.47
2023-05-10T19:46:13.976Z,3.30
2023-05-10T19:48:40.626Z,3.35
2023-05-10T19:51:09.994Z,5.40
2023-05-10T19:53:36.710Z,5.65
2023-05-10T19:56:05.121Z,4.63
2023-05-10T19:58:31.896Z,4.75
2023-05-10T20:00:58.334Z,2.78
2023-05-10T20:03:24.848Z,3.47
2023-05-10T20:05:51.188Z,5.72
2023-05-10T20:08:17.498Z,4.22
2023-05-10T20:10:43.940Z,3.80
2023-05-10T20:13:10.268Z,3.55
2023-05-10T20:15:36.589Z,4.78
2023-05-10T20:18:03.558Z,3.80
2023-05-10T20:20:30.003Z,4.85
2023-05-10T20:22:56.358Z,5.05
2023-05-10T20:25:22.773Z,5.22
2023-05-10T20:27:51.003Z,5.65
2023-05-10T20:30:20.734Z,6.50
2023-05-10T20:32:47.245Z,5.55
2023-05-10T20:35:13.661Z,4.70
2023-05-10T20:37:40.083Z,4.80
2023-05-10T20:40:06.921Z,4.93
2023-05-10T20:42:33.466Z,6.03
2023-05-10T20:44:59.786Z,5.72
2023-05-10T20:47:27.130Z,5.03
2023-05-10T20:49:53.816Z,7.47
2023-05-10T20:52:20.122Z,5.80
2023-05-10T20:54:46.494Z,6.05
2023-05-10T20:57:12.980Z,6.95
2023-05-10T20:59:39.364Z,6.30
2023-05-10T21:02:05.796Z,8.57
2023-05-10T21:04:32.267Z,5.45
2023-05-10T21:06:58.691Z,5.72
2023-05-10T21:09:25.123Z,6.85
2023-05-10T21:11:51.841Z,6.65
2023-05-10T21:14:18.218Z,6.03
2023-05-10T21:16:44.727Z,5.68
2023-05-10T21:19:11.292Z,7.80
2023-05-10T21:21:37.678Z,7.57
2023-05-10T21:24:04.313Z,6.50
2023-05-10T21:26:31.098Z,8.70
2023-05-10T21:28:58.051Z,8.68
2023-05-10T21:31:24.424Z,8.73
2023-05-10T21:33:50.753Z,6.80
2023-05-10T21:36:17.110Z,7.32
2023-05-10T21:38:44.485Z,9.25
2023-05-10T21:41:11.123Z,10.23
2023-05-10T21:43:37.537Z,10.02
2023-05-10T21:46:03.982Z,8.43
2023-05-10T21:48:30.750Z,11.13
2023-05-10T21:50:57.127Z,12.00
2023-05-10T21:53:23.423Z,13.27
2023-05-10T21:55:49.723Z,13.15
2023-05-10T21:58:16.382Z,10.50
2023-05-10T22:00:43.122Z,16.27
2023-05-10T22:03:09.509Z,12.10
2023-05-10T22:05:36.032Z,14.82
2023-05-10T22:08:02.322Z,12.75
2023-05-10T22:10:28.780Z,13.05
2023-05-10T22:12:55.156Z,13.32
2023-05-10T22:15:21.633Z,12.43
2023-05-10T22:17:48.004Z,17.70
2023-05-10T22:20:14.388Z,13.43
2023-05-10T22:22:40.825Z,15.70
2023-05-10T22:25:07.749Z,14.63
2023-05-10T22:27:34.890Z,15.93
2023-05-10T22:30:01.378Z,16.02
2023-05-10T22:32:27.989Z,16.50
2023-05-10T22:34:54.445Z,18.20
2023-05-10T22:37:20.816Z,17.83
2023-05-10T22:39:47.173Z,17.73
2023-05-10T22:42:13.492Z,20.95
2023-05-10T22:44:39.894Z,20.65
2023-05-10T22:47:09.132Z,23.63
2023-05-10T22:49:35.588Z,21.45
2023-05-10T22:52:02.263Z,21.52
2023-05-10T22:54:28.630Z,20.80
2023-05-10T22:56:56.304Z,21.88
2023-05-10T22:59:22.963Z,26.73
2023-05-10T23:01:49.339Z,22.77
2023-05-10T23:04:15.789Z,23.33
2023-05-10T23:06:42.169Z,23.25
2023-05-10T23:09:08.903Z,23.33
2023-05-10T23:11:35.237Z,18.70
2023-05-10T23:14:01.572Z,20.98
2023-05-10T23:16:28.054Z,21.23
2023-05-10T23:18:54.752Z,21.83
2023-05-10T23:21:21.462Z,19.83
2023-05-10T23:23:47.950Z,22.25
2023-05-10T23:26:14.298Z,22.67
2023-05-10T23:28:40.646Z,21.63
2023-05-10T23:31:06.982Z,24.60
2023-05-10T23:33:33.333Z,23.63
2023-05-10T23:35:59.656Z,24.13
2023-05-10T23:38:26.092Z,23.45
2023-05-10T23:40:52.423Z,23.98
2023-05-10T23:43:19.700Z,23.73
2023-05-10T23:45:56.450Z,29.38
2023-05-10T23:48:23.302Z,30.55
2023-05-10T23:50:50.004Z,27.60
2023-05-10T23:53:16.637Z,31.95
2023-05-10T23:55:43.000Z,27.42
2023-05-10T23:58:09.342Z,29.45
